sensor_id;sensor_type;location;lat;lon;timestamp;P1;durP1;ratioP1;P2;durP2;ratioP2
63276;SDS011;49403;51.046;13.780;2022-12-18T00:00:03;53.05;;;22.45;;
63276;SDS011;49403;51.046;13.780;2022-12-18T00:00:39;49.40;;;20.45;;
63276;SDS011;49403;51.046;13.780;2022-12-18T00:01:15;53.72;;;21.50;;
63276;SDS011;49403;51.046;13.780;2022-12-18T00:01:56;46.67;;;19.85;;
63276;SDS011;49403;51.046;13.780;2022-12-18T00:02:29;54.85;;;21.73;;
63276;SDS011;49403;51.046;13.780;2022-12-18T00:02:59;49.60;;;21.27;;
63276;SDS011;49403;51.046;13.780;2022-12-18T00:03:30;50.45;;;20.75;;
63276;SDS011;49403;51.046;13.780;2022-12-18T00:04:05;52.17;;;22.30;;
63276;SDS011;49403;51.046;13.780;2022-12-18T00:04:37;46.08;;;21.10;;
63276;SDS011;49403;51.046;13.780;2022-12-18T00:05:08;57.60;;;21.83;;
63276;SDS011;49403;51.046;13.780;2022-12-18T00:05:46;52.60;;;22.15;;
63276;SDS011;49403;51.046;13.780;2022-12-18T00:06:20;52.85;;;22.45;;
63276;SDS011;49403;51.046;13.780;2022-12-18T00:06:52;52.20;;;22.30;;
63276;SDS011;49403;51.046;13.780;2022-12-18T00:07:23;50.88;;;22.65;;
63276;SDS011;49403;51.046;13.780;2022-12-18T00:07:54;54.33;;;22.70;;
63276;SDS011;49403;51.046;13.780;2022-12-18T00:08:25;53.28;;;21.80;;
63276;SDS011;49403;51.046;13.780;2022-12-18T00:08:56;56.85;;;22.27;;
63276;SDS011;49403;51.046;13.780;2022-12-18T00:09:28;54.03;;;21.98;;
63276;SDS011;49403;51.046;13.780;2022-12-18T00:09:59;56.08;;;22.33;;
63276;SDS011;49403;51.046;13.780;2022-12-18T00:10:30;60.08;;;22.05;;
63276;SDS011;49403;51.046;13.780;2022-12-18T00:11:05;48.45;;;21.65;;
63276;SDS011;49403;51.046;13.780;2022-12-18T00:11:36;50.13;;;22.23;;
63276;SDS011;49403;51.046;13.780;2022-12-18T00:12:07;51.55;;;21.85;;
63276;SDS011;49403;51.046;13.780;2022-12-18T00:12:38;53.00;;;22.05;;
63276;SDS011;49403;51.046;13.780;2022-12-18T00:13:09;47.70;;;20.65;;
63276;SDS011;49403;51.046;13.780;2022-12-18T00:13:40;45.58;;;19.40;;
63276;SDS011;49403;51.046;13.780;2022-12-18T00:14:12;52.13;;;20.30;;
63276;SDS011;49403;51.046;13.780;2022-12-18T00:14:43;51.42;;;20.33;;
63276;SDS011;49403;51.046;13.780;2022-12-18T00:15:14;52.97;;;21.52;;
63276;SDS011;49403;51.046;13.780;2022-12-18T00:15:45;53.03;;;21.63;;
63276;SDS011;49403;51.046;13.780;2022-12-18T00:16:17;46.28;;;20.75;;
63276;SDS011;49403;51.046;13.780;2022-12-18T00:16:50;51.38;;;21.52;;
63276;SDS011;49403;51.046;13.780;2022-12-18T00:17:21;50.08;;;20.38;;
63276;SDS011;49403;51.046;13.780;2022-12-18T00:17:52;48.20;;;21.70;;
63276;SDS011;49403;51.046;13.780;2022-12-18T00:18:23;56.58;;;22.30;;
63276;SDS011;49403;51.046;13.780;2022-12-18T00:18:55;52.72;;;21.98;;
63276;SDS011;49403;51.046;13.780;2022-12-18T00:19:27;53.22;;;21.85;;
63276;SDS011;49403;51.046;13.780;2022-12-18T00:19:58;49.13;;;20.58;;
63276;SDS011;49403;51.046;13.780;2022-12-18T00:20:28;51.47;;;22.13;;
63276;SDS011;49403;51.046;13.780;2022-12-18T00:21:00;50.75;;;21.35;;
63276;SDS011;49403;51.046;13.780;2022-12-18T00:21:33;53.33;;;21.50;;
63276;SDS011;49403;51.046;13.780;2022-12-18T00:22:04;50.13;;;20.30;;
63276;SDS011;49403;51.046;13.780;2022-12-18T00:22:36;50.15;;;20.38;;
63276;SDS011;49403;51.046;13.780;2022-12-18T00:23:07;47.28;;;20.23;;
63276;SDS011;49403;51.046;13.780;2022-12-18T00:23:38;47.35;;;20.23;;
63276;SDS011;49403;51.046;13.780;2022-12-18T00:24:10;51.42;;;21.33;;
63276;SDS011;49403;51.046;13.780;2022-12-18T00:24:41;49.45;;;21.08;;
63276;SDS011;49403;51.046;13.780;2022-12-18T00:25:11;54.22;;;21.02;;
63276;SDS011;49403;51.046;13.780;2022-12-18T00:25:42;46.92;;;20.15;;
63276;SDS011;49403;51.046;13.780;2022-12-18T00:26:14;54.75;;;21.00;;
63276;SDS011;49403;51.046;13.780;2022-12-18T00:26:49;47.22;;;20.45;;
63276;SDS011;49403;51.046;13.780;2022-12-18T00:27:20;49.17;;;19.77;;
63276;SDS011;49403;51.046;13.780;2022-12-18T00:27:51;48.42;;;19.95;;
63276;SDS011;49403;51.046;13.780;2022-12-18T00:28:22;45.50;;;19.83;;
63276;SDS011;49403;51.046;13.780;2022-12-18T00:28:53;51.83;;;19.60;;
63276;SDS011;49403;51.046;13.780;2022-12-18T00:29:25;45.30;;;19.98;;
63276;SDS011;49403;51.046;13.780;2022-12-18T00:29:56;51.05;;;20.73;;
63276;SDS011;49403;51.046;13.780;2022-12-18T00:30:27;44.22;;;20.15;;
63276;SDS011;49403;51.046;13.780;2022-12-18T00:31:01;43.17;;;19.60;;
63276;SDS011;49403;51.046;13.780;2022-12-18T00:31:40;48.25;;;19.77;;
63276;SDS011;49403;51.046;13.780;2022-12-18T00:32:11;50.65;;;20.52;;
63276;SDS011;49403;51.046;13.780;2022-12-18T00:32:42;50.50;;;20.40;;
63276;SDS011;49403;51.046;13.780;2022-12-18T00:33:13;50.10;;;20.33;;
63276;SDS011;49403;51.046;13.780;2022-12-18T00:33:44;47.30;;;19.88;;
63276;SDS011;49403;51.046;13.780;2022-12-18T00:34:15;53.70;;;21.05;;
63276;SDS011;49403;51.046;13.780;2022-12-18T00:34:46;47.95;;;19.73;;
63276;SDS011;49403;51.046;13.780;2022-12-18T00:35:17;46.97;;;19.85;;
63276;SDS011;49403;51.046;13.780;2022-12-18T00:35:47;49.03;;;19.73;;
63276;SDS011;49403;51.046;13.780;2022-12-18T00:36:19;47.25;;;20.52;;
63276;SDS011;49403;51.046;13.780;2022-12-18T00:36:51;47.10;;;19.30;;
63276;SDS011;49403;51.046;13.780;2022-12-18T00:37:22;46.38;;;19.45;;
63276;SDS011;49403;51.046;13.780;2022-12-18T00:37:53;49.58;;;20.52;;
63276;SDS011;49403;51.046;13.780;2022-12-18T00:38:24;47.50;;;20.15;;
63276;SDS011;49403;51.046;13.780;2022-12-18T00:38:55;51.92;;;20.85;;
63276;SDS011;49403;51.046;13.780;2022-12-18T00:39:27;49.85;;;20.70;;
63276;SDS011;49403;51.046;13.780;2022-12-18T00:39:58;46.17;;;19.75;;
63276;SDS011;49403;51.046;13.780;2022-12-18T00:40:29;48.67;;;20.42;;
63276;SDS011;49403;51.046;13.780;2022-12-18T00:41:00;48.15;;;20.83;;
63276;SDS011;49403;51.046;13.780;2022-12-18T00:41:31;53.17;;;21.30;;
63276;SDS011;49403;51.046;13.780;2022-12-18T00:42:20;46.35;;;19.98;;
63276;SDS011;49403;51.046;13.780;2022-12-18T00:43:10;42.20;;;18.02;;
63276;SDS011;49403;51.046;13.780;2022-12-18T00:43:40;47.65;;;19.73;;
63276;SDS011;49403;51.046;13.780;2022-12-18T00:44:12;45.58;;;18.65;;
63276;SDS011;49403;51.046;13.780;2022-12-18T00:44:44;50.35;;;19.45;;
63276;SDS011;49403;51.046;13.780;2022-12-18T00:45:15;50.72;;;19.80;;
63276;SDS011;49403;51.046;13.780;2022-12-18T00:45:46;46.33;;;20.17;;
63276;SDS011;49403;51.046;13.780;2022-12-18T00:46:17;43.70;;;19.25;;
63276;SDS011;49403;51.046;13.780;2022-12-18T00:46:48;52.22;;;20.23;;
63276;SDS011;49403;51.046;13.780;2022-12-18T00:47:19;43.70;;;18.40;;
63276;SDS011;49403;51.046;13.780;2022-12-18T00:47:50;48.40;;;19.70;;
63276;SDS011;49403;51.046;13.780;2022-12-18T00:48:21;53.33;;;19.63;;
63276;SDS011;49403;51.046;13.780;2022-12-18T00:48:51;45.75;;;19.05;;
63276;SDS011;49403;51.046;13.780;2022-12-18T00:49:22;48.28;;;19.85;;
63276;SDS011;49403;51.046;13.780;2022-12-18T00:49:53;49.35;;;19.50;;
63276;SDS011;49403;51.046;13.780;2022-12-18T00:50:24;45.08;;;18.95;;
63276;SDS011;49403;51.046;13.780;2022-12-18T00:50:55;54.83;;;19.73;;
63276;SDS011;49403;51.046;13.780;2022-12-18T00:51:26;46.92;;;18.73;;
63276;SDS011;49403;51.046;13.780;2022-12-18T00:51:57;42.30;;;18.63;;
63276;SDS011;49403;51.046;13.780;2022-12-18T00:52:28;45.78;;;18.25;;
63276;SDS011;49403;51.046;13.780;2022-12-18T00:52:59;47.80;;;17.92;;
63276;SDS011;49403;51.046;13.780;2022-12-18T00:53:30;39.35;;;17.85;;
63276;SDS011;49403;51.046;13.780;2022-12-18T00:54:00;45.33;;;18.80;;
63276;SDS011;49403;51.046;13.780;2022-12-18T00:54:31;39.13;;;17.50;;
63276;SDS011;49403;51.046;13.780;2022-12-18T00:55:02;40.75;;;17.55;;
63276;SDS011;49403;51.046;13.780;2022-12-18T00:55:33;45.17;;;18.35;;
63276;SDS011;49403;51.046;13.780;2022-12-18T00:56:04;44.97;;;17.67;;
63276;SDS011;49403;51.046;13.780;2022-12-18T00:56:38;40.60;;;17.33;;
63276;SDS011;49403;51.046;13.780;2022-12-18T00:57:09;41.88;;;18.05;;
63276;SDS011;49403;51.046;13.780;2022-12-18T00:57:40;44.08;;;18.25;;
63276;SDS011;49403;51.046;13.780;2022-12-18T00:58:11;42.85;;;17.20;;
63276;SDS011;49403;51.046;13.780;2022-12-18T00:58:44;45.58;;;17.88;;
63276;SDS011;49403;51.046;13.780;2022-12-18T00:59:15;44.00;;;17.90;;
63276;SDS011;49403;51.046;13.780;2022-12-18T00:59:48;41.67;;;17.75;;
63276;SDS011;49403;51.046;13.780;2022-12-18T01:00:19;44.38;;;18.15;;
63276;SDS011;49403;51.046;13.780;2022-12-18T01:00:50;38.53;;;17.10;;
63276;SDS011;49403;51.046;13.780;2022-12-18T01:01:21;41.80;;;17.60;;
63276;SDS011;49403;51.046;13.780;2022-12-18T01:01:52;43.22;;;18.20;;
63276;SDS011;49403;51.046;13.780;2022-12-18T01:02:23;43.50;;;18.13;;
63276;SDS011;49403;51.046;13.780;2022-12-18T01:02:54;44.63;;;18.02;;
63276;SDS011;49403;51.046;13.780;2022-12-18T01:03:25;38.15;;;17.00;;
63276;SDS011;49403;51.046;13.780;2022-12-18T01:03:57;40.80;;;17.08;;
63276;SDS011;49403;51.046;13.780;2022-12-18T01:04:30;42.05;;;17.38;;
63276;SDS011;49403;51.046;13.780;2022-12-18T01:05:02;39.22;;;16.92;;
63276;SDS011;49403;51.046;13.780;2022-12-18T01:05:33;39.40;;;17.27;;
63276;SDS011;49403;51.046;13.780;2022-12-18T01:06:07;41.25;;;16.55;;
63276;SDS011;49403;51.046;13.780;2022-12-18T01:06:39;41.75;;;16.73;;
63276;SDS011;49403;51.046;13.780;2022-12-18T01:07:10;36.45;;;16.27;;
63276;SDS011;49403;51.046;13.780;2022-12-18T01:07:41;41.95;;;17.83;;
63276;SDS011;49403;51.046;13.780;2022-12-18T01:08:12;38.25;;;15.98;;
63276;SDS011;49403;51.046;13.780;2022-12-18T01:08:43;36.47;;;16.88;;
63276;SDS011;49403;51.046;13.780;2022-12-18T01:09:14;39.97;;;16.52;;
63276;SDS011;49403;51.046;13.780;2022-12-18T01:09:45;44.25;;;17.55;;
63276;SDS011;49403;51.046;13.780;2022-12-18T01:10:16;45.38;;;17.35;;
63276;SDS011;49403;51.046;13.780;2022-12-18T01:10:47;39.95;;;15.70;;
63276;SDS011;49403;51.046;13.780;2022-12-18T01:11:18;40.38;;;16.05;;
63276;SDS011;49403;51.046;13.780;2022-12-18T01:11:50;39.42;;;16.10;;
63276;SDS011;49403;51.046;13.780;2022-12-18T01:12:21;39.08;;;16.27;;
63276;SDS011;49403;51.046;13.780;2022-12-18T01:12:52;40.35;;;16.30;;
63276;SDS011;49403;51.046;13.780;2022-12-18T01:13:23;40.17;;;17.00;;
63276;SDS011;49403;51.046;13.780;2022-12-18T01:13:54;39.35;;;15.48;;
63276;SDS011;49403;51.046;13.780;2022-12-18T01:14:25;39.75;;;16.27;;
63276;SDS011;49403;51.046;13.780;2022-12-18T01:14:56;35.50;;;16.70;;
63276;SDS011;49403;51.046;13.780;2022-12-18T01:15:26;39.72;;;16.08;;
63276;SDS011;49403;51.046;13.780;2022-12-18T01:15:57;35.88;;;15.70;;
63276;SDS011;49403;51.046;13.780;2022-12-18T01:16:28;33.58;;;15.15;;
63276;SDS011;49403;51.046;13.780;2022-12-18T01:16:59;33.85;;;14.48;;
63276;SDS011;49403;51.046;13.780;2022-12-18T01:17:32;39.60;;;16.00;;
63276;SDS011;49403;51.046;13.780;2022-12-18T01:18:04;36.30;;;15.25;;
63276;SDS011;49403;51.046;13.780;2022-12-18T01:18:35;43.70;;;16.42;;
63276;SDS011;49403;51.046;13.780;2022-12-18T01:19:05;38.20;;;14.80;;
63276;SDS011;49403;51.046;13.780;2022-12-18T01:19:36;38.05;;;15.38;;
63276;SDS011;49403;51.046;13.780;2022-12-18T01:20:08;32.70;;;14.98;;
63276;SDS011;49403;51.046;13.780;2022-12-18T01:20:40;37.42;;;15.30;;
63276;SDS011;49403;51.046;13.780;2022-12-18T01:21:12;37.28;;;14.70;;
63276;SDS011;49403;51.046;13.780;2022-12-18T01:21:45;33.78;;;14.13;;
63276;SDS011;49403;51.046;13.780;2022-12-18T01:22:15;43.28;;;16.58;;
63276;SDS011;49403;51.046;13.780;2022-12-18T01:22:46;35.15;;;15.95;;
63276;SDS011;49403;51.046;13.780;2022-12-18T01:23:17;36.72;;;15.98;;
63276;SDS011;49403;51.046;13.780;2022-12-18T01:23:50;35.65;;;14.88;;
63276;SDS011;49403;51.046;13.780;2022-12-18T01:24:23;35.80;;;14.63;;
63276;SDS011;49403;51.046;13.780;2022-12-18T01:24:54;35.88;;;15.15;;
63276;SDS011;49403;51.046;13.780;2022-12-18T01:25:24;40.38;;;15.32;;
63276;SDS011;49403;51.046;13.780;2022-12-18T01:25:55;33.78;;;14.80;;
63276;SDS011;49403;51.046;13.780;2022-12-18T01:26:26;36.85;;;14.95;;
63276;SDS011;49403;51.046;13.780;2022-12-18T01:26:59;38.25;;;15.15;;
63276;SDS011;49403;51.046;13.780;2022-12-18T01:27:30;32.25;;;14.52;;
63276;SDS011;49403;51.046;13.780;2022-12-18T01:28:01;34.47;;;14.25;;
63276;SDS011;49403;51.046;13.780;2022-12-18T01:28:32;37.03;;;15.07;;
63276;SDS011;49403;51.046;13.780;2022-12-18T01:29:03;36.13;;;13.85;;
63276;SDS011;49403;51.046;13.780;2022-12-18T01:29:34;35.88;;;14.70;;
63276;SDS011;49403;51.046;13.780;2022-12-18T01:30:05;31.95;;;13.70;;
63276;SDS011;49403;51.046;13.780;2022-12-18T01:30:36;34.45;;;14.82;;
63276;SDS011;49403;51.046;13.780;2022-12-18T01:31:14;34.13;;;13.98;;
63276;SDS011;49403;51.046;13.780;2022-12-18T01:31:50;30.95;;;13.13;;
63276;SDS011;49403;51.046;13.780;2022-12-18T01:32:21;29.75;;;12.88;;
63276;SDS011;49403;51.046;13.780;2022-12-18T01:32:52;35.08;;;14.60;;
63276;SDS011;49403;51.046;13.780;2022-12-18T01:33:23;32.75;;;13.52;;
63276;SDS011;49403;51.046;13.780;2022-12-18T01:33:54;32.92;;;13.38;;
63276;SDS011;49403;51.046;13.780;2022-12-18T01:34:25;34.35;;;14.02;;
63276;SDS011;49403;51.046;13.780;2022-12-18T01:34:56;30.30;;;13.73;;
63276;SDS011;49403;51.046;13.780;2022-12-18T01:35:27;34.08;;;13.13;;
63276;SDS011;49403;51.046;13.780;2022-12-18T01:35:58;32.28;;;13.60;;
63276;SDS011;49403;51.046;13.780;2022-12-18T01:36:29;29.00;;;13.13;;
63276;SDS011;49403;51.046;13.780;2022-12-18T01:37:05;34.78;;;14.25;;
63276;SDS011;49403;51.046;13.780;2022-12-18T01:37:36;30.95;;;13.55;;
63276;SDS011;49403;51.046;13.780;2022-12-18T01:38:07;30.05;;;13.45;;
63276;SDS011;49403;51.046;13.780;2022-12-18T01:38:38;35.45;;;13.65;;
63276;SDS011;49403;51.046;13.780;2022-12-18T01:39:12;31.67;;;12.48;;
63276;SDS011;49403;51.046;13.780;2022-12-18T01:39:44;33.80;;;13.65;;
63276;SDS011;49403;51.046;13.780;2022-12-18T01:40:15;31.58;;;13.15;;
63276;SDS011;49403;51.046;13.780;2022-12-18T01:40:45;34.30;;;13.70;;
63276;SDS011;49403;51.046;13.780;2022-12-18T01:41:17;33.50;;;13.82;;
63276;SDS011;49403;51.046;13.780;2022-12-18T01:41:50;34.67;;;13.82;;
63276;SDS011;49403;51.046;13.780;2022-12-18T01:42:33;33.22;;;12.98;;
63276;SDS011;49403;51.046;13.780;2022-12-18T01:43:04;34.78;;;14.13;;
63276;SDS011;49403;51.046;13.780;2022-12-18T01:43:48;32.10;;;14.52;;
63276;SDS011;49403;51.046;13.780;2022-12-18T01:45:34;30.02;;;11.40;;
63276;SDS011;49403;51.046;13.780;2022-12-18T01:46:05;31.83;;;12.50;;
63276;SDS011;49403;51.046;13.780;2022-12-18T01:46:36;27.70;;;11.60;;
63276;SDS011;49403;51.046;13.780;2022-12-18T01:47:07;32.90;;;13.23;;
63276;SDS011;49403;51.046;13.780;2022-12-18T01:47:42;32.15;;;12.75;;
63276;SDS011;49403;51.046;13.780;2022-12-18T01:48:21;27.92;;;11.95;;
63276;SDS011;49403;51.046;13.780;2022-12-18T01:48:54;31.45;;;12.65;;
63276;SDS011;49403;51.046;13.780;2022-12-18T01:49:31;30.95;;;13.30;;
63276;SDS011;49403;51.046;13.780;2022-12-18T01:50:05;31.95;;;12.95;;
63276;SDS011;49403;51.046;13.780;2022-12-18T01:50:58;33.35;;;12.18;;
63276;SDS011;49403;51.046;13.780;2022-12-18T01:51:30;33.90;;;12.27;;
63276;SDS011;49403;51.046;13.780;2022-12-18T01:52:01;29.55;;;13.23;;
63276;SDS011;49403;51.046;13.780;2022-12-18T01:52:31;31.63;;;13.98;;
63276;SDS011;49403;51.046;13.780;2022-12-18T01:53:07;27.08;;;12.55;;
63276;SDS011;49403;51.046;13.780;2022-12-18T01:53:43;33.90;;;13.05;;
63276;SDS011;49403;51.046;13.780;2022-12-18T01:54:15;31.60;;;13.07;;
63276;SDS011;49403;51.046;13.780;2022-12-18T01:54:46;33.58;;;13.52;;
63276;SDS011;49403;51.046;13.780;2022-12-18T01:55:19;31.33;;;13.20;;
63276;SDS011;49403;51.046;13.780;2022-12-18T01:55:54;30.40;;;13.43;;
63276;SDS011;49403;51.046;13.780;2022-12-18T01:56:27;29.52;;;12.48;;
63276;SDS011;49403;51.046;13.780;2022-12-18T01:56:58;30.90;;;13.85;;
63276;SDS011;49403;51.046;13.780;2022-12-18T01:57:30;30.58;;;13.68;;
63276;SDS011;49403;51.046;13.780;2022-12-18T01:58:02;30.50;;;13.52;;
63276;SDS011;49403;51.046;13.780;2022-12-18T01:58:39;35.15;;;14.13;;
63276;SDS011;49403;51.046;13.780;2022-12-18T01:59:19;32.50;;;13.55;;
63276;SDS011;49403;51.046;13.780;2022-12-18T01:59:52;32.08;;;12.82;;
63276;SDS011;49403;51.046;13.780;2022-12-18T02:00:26;26.90;;;12.00;;
63276;SDS011;49403;51.046;13.780;2022-12-18T02:00:58;32.42;;;13.35;;
63276;SDS011;49403;51.046;13.780;2022-12-18T02:01:29;30.10;;;12.80;;
63276;SDS011;49403;51.046;13.780;2022-12-18T02:02:01;30.67;;;12.57;;
63276;SDS011;49403;51.046;13.780;2022-12-18T02:02:32;29.05;;;13.38;;
63276;SDS011;49403;51.046;13.780;2022-12-18T02:03:03;34.42;;;13.45;;
63276;SDS011;49403;51.046;13.780;2022-12-18T02:03:34;34.10;;;13.73;;
63276;SDS011;49403;51.046;13.780;2022-12-18T02:04:24;30.15;;;13.20;;
63276;SDS011;49403;51.046;13.780;2022-12-18T02:04:57;31.83;;;12.18;;
63276;SDS011;49403;51.046;13.780;2022-12-18T02:06:54;29.17;;;11.98;;
63276;SDS011;49403;51.046;13.780;2022-12-18T02:07:30;26.05;;;11.07;;
63276;SDS011;49403;51.046;13.780;2022-12-18T02:08:10;28.77;;;12.07;;
63276;SDS011;49403;51.046;13.780;2022-12-18T02:09:35;24.48;;;10.57;;
63276;SDS011;49403;51.046;13.780;2022-12-18T02:10:57;30.23;;;10.80;;
63276;SDS011;49403;51.046;13.780;2022-12-18T02:13:24;28.98;;;10.80;;
63276;SDS011;49403;51.046;13.780;2022-12-18T02:15:01;26.52;;;11.52;;
63276;SDS011;49403;51.046;13.780;2022-12-18T02:16:45;25.55;;;11.07;;
63276;SDS011;49403;51.046;13.780;2022-12-18T02:17:38;25.00;;;10.32;;
63276;SDS011;49403;51.046;13.780;2022-12-18T02:18:19;25.13;;;10.55;;
63276;SDS011;49403;51.046;13.780;2022-12-18T02:19:00;25.63;;;11.45;;
63276;SDS011;49403;51.046;13.780;2022-12-18T02:19:47;24.88;;;10.55;;
63276;SDS011;49403;51.046;13.780;2022-12-18T02:20:52;26.73;;;10.05;;
63276;SDS011;49403;51.046;13.780;2022-12-18T02:24:51;25.83;;;9.73;;
63276;SDS011;49403;51.046;13.780;2022-12-18T02:26:18;19.90;;;9.32;;
63276;SDS011;49403;51.046;13.780;2022-12-18T02:27:22;22.77;;;8.82;;
63276;SDS011;49403;51.046;13.780;2022-12-18T02:27:54;25.77;;;9.57;;
63276;SDS011;49403;51.046;13.780;2022-12-18T02:28:30;26.83;;;10.38;;
63276;SDS011;49403;51.046;13.780;2022-12-18T02:29:12;22.65;;;9.75;;
63276;SDS011;49403;51.046;13.780;2022-12-18T02:30:10;23.02;;;9.20;;
63276;SDS011;49403;51.046;13.780;2022-12-18T02:30:42;19.30;;;8.85;;
63276;SDS011;49403;51.046;13.780;2022-12-18T02:31:15;18.98;;;9.10;;
63276;SDS011;49403;51.046;13.780;2022-12-18T02:31:52;19.83;;;9.55;;
63276;SDS011;49403;51.046;13.780;2022-12-18T02:32:30;24.02;;;9.23;;
63276;SDS011;49403;51.046;13.780;2022-12-18T02:33:05;19.48;;;9.60;;
63276;SDS011;49403;51.046;13.780;2022-12-18T02:33:38;25.73;;;9.90;;
63276;SDS011;49403;51.046;13.780;2022-12-18T02:34:12;20.02;;;9.50;;
63276;SDS011;49403;51.046;13.780;2022-12-18T02:34:45;24.27;;;10.48;;
63276;SDS011;49403;51.046;13.780;2022-12-18T02:35:24;19.75;;;9.30;;
63276;SDS011;49403;51.046;13.780;2022-12-18T02:35:58;21.52;;;9.43;;
63276;SDS011;49403;51.046;13.780;2022-12-18T02:36:31;21.30;;;9.23;;
63276;SDS011;49403;51.046;13.780;2022-12-18T02:37:04;24.40;;;10.45;;
63276;SDS011;49403;51.046;13.780;2022-12-18T02:37:38;23.00;;;9.98;;
63276;SDS011;49403;51.046;13.780;2022-12-18T02:38:11;23.73;;;10.13;;
63276;SDS011;49403;51.046;13.780;2022-12-18T02:38:43;24.48;;;10.70;;
63276;SDS011;49403;51.046;13.780;2022-12-18T02:39:16;25.33;;;11.10;;
63276;SDS011;49403;51.046;13.780;2022-12-18T02:39:48;26.25;;;10.32;;
63276;SDS011;49403;51.046;13.780;2022-12-18T02:40:22;27.35;;;11.00;;
63276;SDS011;49403;51.046;13.780;2022-12-18T02:40:54;25.85;;;10.73;;
63276;SDS011;49403;51.046;13.780;2022-12-18T02:41:27;24.10;;;10.32;;
63276;SDS011;49403;51.046;13.780;2022-12-18T02:41:58;23.70;;;10.10;;
63276;SDS011;49403;51.046;13.780;2022-12-18T02:42:32;25.20;;;10.30;;
63276;SDS011;49403;51.046;13.780;2022-12-18T02:43:10;21.67;;;10.73;;
63276;SDS011;49403;51.046;13.780;2022-12-18T02:43:49;27.40;;;10.82;;
63276;SDS011;49403;51.046;13.780;2022-12-18T02:44:26;24.50;;;10.32;;
63276;SDS011;49403;51.046;13.780;2022-12-18T02:44:57;25.27;;;10.55;;
63276;SDS011;49403;51.046;13.780;2022-12-18T02:45:28;27.10;;;10.85;;
63276;SDS011;49403;51.046;13.780;2022-12-18T02:45:59;23.20;;;10.05;;
63276;SDS011;49403;51.046;13.780;2022-12-18T02:46:52;26.20;;;10.15;;
63276;SDS011;49403;51.046;13.780;2022-12-18T02:47:24;24.40;;;10.70;;
63276;SDS011;49403;51.046;13.780;2022-12-18T02:47:59;31.20;;;10.90;;
63276;SDS011;49403;51.046;13.780;2022-12-18T02:48:31;25.27;;;10.23;;
63276;SDS011;49403;51.046;13.780;2022-12-18T02:50:02;21.20;;;9.73;;
63276;SDS011;49403;51.046;13.780;2022-12-18T02:50:48;21.08;;;9.35;;
63276;SDS011;49403;51.046;13.780;2022-12-18T02:51:38;21.13;;;9.07;;
63276;SDS011;49403;51.046;13.780;2022-12-18T02:52:41;20.70;;;9.82;;
63276;SDS011;49403;51.046;13.780;2022-12-18T02:53:35;20.83;;;9.10;;
63276;SDS011;49403;51.046;13.780;2022-12-18T02:54:20;23.23;;;9.63;;
63276;SDS011;49403;51.046;13.780;2022-12-18T02:56:46;26.10;;;9.40;;
63276;SDS011;49403;51.046;13.780;2022-12-18T02:57:26;20.88;;;9.57;;
63276;SDS011;49403;51.046;13.780;2022-12-18T02:59:31;19.10;;;9.48;;
63276;SDS011;49403;51.046;13.780;2022-12-18T03:00:10;21.30;;;9.32;;
63276;SDS011;49403;51.046;13.780;2022-12-18T03:00:51;20.85;;;9.75;;
63276;SDS011;49403;51.046;13.780;2022-12-18T03:01:52;20.83;;;9.25;;
63276;SDS011;49403;51.046;13.780;2022-12-18T03:03:19;22.58;;;9.60;;
63276;SDS011;49403;51.046;13.780;2022-12-18T03:04:16;19.33;;;8.73;;
63276;SDS011;49403;51.046;13.780;2022-12-18T03:04:57;23.40;;;9.07;;
63276;SDS011;49403;51.046;13.780;2022-12-18T03:05:38;27.13;;;9.10;;
63276;SDS011;49403;51.046;13.780;2022-12-18T03:06:26;24.40;;;9.40;;
63276;SDS011;49403;51.046;13.780;2022-12-18T03:07:05;24.13;;;9.70;;
63276;SDS011;49403;51.046;13.780;2022-12-18T03:07:53;21.92;;;9.38;;
63276;SDS011;49403;51.046;13.780;2022-12-18T03:08:38;23.55;;;9.18;;
63276;SDS011;49403;51.046;13.780;2022-12-18T03:09:14;20.80;;;9.27;;
63276;SDS011;49403;51.046;13.780;2022-12-18T03:09:51;25.50;;;9.73;;
63276;SDS011;49403;51.046;13.780;2022-12-18T03:10:25;17.95;;;8.85;;
63276;SDS011;49403;51.046;13.780;2022-12-18T03:11:00;23.15;;;10.20;;
63276;SDS011;49403;51.046;13.780;2022-12-18T03:11:38;22.50;;;9.50;;
63276;SDS011;49403;51.046;13.780;2022-12-18T03:12:32;21.48;;;9.82;;
63276;SDS011;49403;51.046;13.780;2022-12-18T03:13:14;25.50;;;9.55;;
63276;SDS011;49403;51.046;13.780;2022-12-18T03:13:54;26.88;;;9.07;;
63276;SDS011;49403;51.046;13.780;2022-12-18T03:14:26;19.65;;;9.00;;
63276;SDS011;49403;51.046;13.780;2022-12-18T03:15:03;23.25;;;8.75;;
63276;SDS011;49403;51.046;13.780;2022-12-18T03:16:09;21.15;;;9.45;;
63276;SDS011;49403;51.046;13.780;2022-12-18T03:16:42;19.92;;;8.73;;
63276;SDS011;49403;51.046;13.780;2022-12-18T03:17:16;18.77;;;8.32;;
63276;SDS011;49403;51.046;13.780;2022-12-18T03:17:51;20.73;;;8.82;;
63276;SDS011;49403;51.046;13.780;2022-12-18T03:18:41;20.02;;;8.82;;
63276;SDS011;49403;51.046;13.780;2022-12-18T03:19:16;17.30;;;8.25;;
63276;SDS011;49403;51.046;13.780;2022-12-18T03:19:49;18.08;;;7.90;;
63276;SDS011;49403;51.046;13.780;2022-12-18T03:20:22;16.60;;;8.18;;
63276;SDS011;49403;51.046;13.780;2022-12-18T03:20:54;17.13;;;7.90;;
63276;SDS011;49403;51.046;13.780;2022-12-18T03:22:01;17.92;;;8.45;;
63276;SDS011;49403;51.046;13.780;2022-12-18T03:22:24;20.25;;;8.00;;
63276;SDS011;49403;51.046;13.780;2022-12-18T03:23:02;20.27;;;8.57;;
63276;SDS011;49403;51.046;13.780;2022-12-18T03:23:43;17.27;;;8.65;;
63276;SDS011;49403;51.046;13.780;2022-12-18T03:24:18;18.15;;;8.43;;
63276;SDS011;49403;51.046;13.780;2022-12-18T03:24:51;19.60;;;8.95;;
63276;SDS011;49403;51.046;13.780;2022-12-18T03:25:24;20.40;;;8.35;;
63276;SDS011;49403;51.046;13.780;2022-12-18T03:25:57;23.35;;;9.65;;
63276;SDS011;49403;51.046;13.780;2022-12-18T03:26:31;21.45;;;9.57;;
63276;SDS011;49403;51.046;13.780;2022-12-18T03:27:04;24.48;;;9.63;;
63276;SDS011;49403;51.046;13.780;2022-12-18T03:27:40;22.38;;;9.02;;
63276;SDS011;49403;51.046;13.780;2022-12-18T03:28:17;19.23;;;8.52;;
63276;SDS011;49403;51.046;13.780;2022-12-18T03:28:53;21.38;;;9.00;;
63276;SDS011;49403;51.046;13.780;2022-12-18T03:29:36;18.52;;;8.32;;
63276;SDS011;49403;51.046;13.780;2022-12-18T03:30:32;22.60;;;8.45;;
63276;SDS011;49403;51.046;13.780;2022-12-18T03:31:07;23.02;;;8.65;;
63276;SDS011;49403;51.046;13.780;2022-12-18T03:31:41;17.42;;;8.45;;
63276;SDS011;49403;51.046;13.780;2022-12-18T03:32:24;17.73;;;8.45;;
63276;SDS011;49403;51.046;13.780;2022-12-18T03:33:05;18.65;;;8.70;;
63276;SDS011;49403;51.046;13.780;2022-12-18T03:33:52;19.50;;;8.63;;
63276;SDS011;49403;51.046;13.780;2022-12-18T03:34:26;18.92;;;8.35;;
63276;SDS011;49403;51.046;13.780;2022-12-18T03:35:02;23.00;;;8.73;;
63276;SDS011;49403;51.046;13.780;2022-12-18T03:35:36;20.63;;;8.75;;
63276;SDS011;49403;51.046;13.780;2022-12-18T03:36:10;18.35;;;8.00;;
63276;SDS011;49403;51.046;13.780;2022-12-18T03:36:41;21.13;;;8.15;;